Portada
METAR-TAF:

METAR-TAF

Aeroports :

Ushuaia, Argentina

latitud: 54-48S, longitud: 068-19W, altitud: 16 m

Observació

L'informe es va fer fa 1 hora i 5 minuts, a les 13:00 UTC
Vent 4 kt amb direcció variable
Temperatura 2°C
Humitat 64%
Pressió 1019 hPa
Visibilitat 10 km o més
Escasses núvols a una alçada de 4300 ft

METAR: SAWH 081300Z VRB04KT 9999 FEW043 02/M04 Q1019 RMK PP000

Hora: 11:05 (14:05 UTC)

Pronòstic

L'informe es va fer fa 3 hores i 5 minuts, a les 11:00 UTC
Pronòstic vàlid del 08 a les 12 UTC al 09 a les 12 UTC
Vent 3 kt amb direcció variable
Visibilitat 10 km o més
Escasses núvols a una alçada de 4000 ft
Núvols disperses a una alçada de 7000 ft
Temporalment
l' 09 a les 06 UTC al 09 a les 09 UTC
Núvols disperses a una alçada de 2000 ft
Cel cobert a una alçada de 3000 ft
neu

TAF: SAWH 081100Z 0812/0912 VRB03KT 9999 FEW040 SCT070 TX03/0818Z TNM01/0911Z TEMPO 0906/0909 SN SCT020 OVC030

Observacions i pronòstics meteorològics de més de 4000 aeroports (METAR i TAF).

Les estacions disponibles són els punts grocs i vermells al mapa.

Posi el ratolí al punt desitjat per veure el nom de l'estació.

Feu clic per veure les observacions i els pronòstics meteorològics.

Per canviar el mapa: feu clic els botons verds amb una creu de color negre per apropar; al botó verd amb un guió per allunyar la imatge; o en les fletxes verdes per a mapes adjacents.


METAR-TAF: